createdAt,value
2022-09-15T10:58:28.464Z,24.27
2022-09-15T11:01:04.164Z,24.16
2022-09-15T11:03:48.935Z,24.05
2022-09-15T11:06:35.890Z,23.90
2022-09-15T11:09:05.880Z,23.92
2022-09-15T11:11:38.722Z,23.57
2022-09-15T11:14:27.646Z,23.36
2022-09-15T11:17:16.298Z,23.51
2022-09-15T11:19:46.626Z,23.36
2022-09-15T11:22:16.541Z,23.47
2022-09-15T11:24:47.780Z,23.31
2022-09-15T12:07:28.622Z,22.42
2022-09-15T12:17:32.555Z,22.04
2022-09-15T12:23:01.343Z,22.19
2022-09-15T12:26:14.593Z,22.19
2022-09-15T12:28:56.409Z,22.14
2022-09-15T12:31:25.964Z,22.09
2022-09-15T12:34:03.938Z,22.06
2022-09-15T12:36:47.625Z,21.99
2022-09-15T12:39:21.689Z,22.00
2022-09-15T12:42:02.730Z,21.87
2022-09-15T12:44:45.070Z,22.04
2022-09-15T12:47:32.313Z,22.03
2022-09-15T12:50:15.179Z,21.95
2022-09-15T12:52:50.217Z,22.24
2022-09-15T12:55:31.864Z,21.81
2022-09-15T12:58:11.133Z,21.85
2022-09-15T13:01:14.262Z,21.74
2022-09-15T13:06:22.618Z,21.64
2022-09-15T13:09:01.667Z,21.78
2022-09-15T13:11:37.451Z,21.56
2022-09-15T13:14:06.960Z,21.56
2022-09-15T13:16:52.573Z,21.50
2022-09-15T13:19:22.662Z,21.47
2022-09-15T13:22:11.687Z,21.54
2022-09-15T13:24:59.030Z,21.21
2022-09-15T13:27:37.477Z,21.41
2022-09-15T13:30:16.473Z,21.32
2022-09-15T13:33:03.835Z,21.40
2022-09-15T13:35:39.671Z,21.29
2022-09-15T13:38:27.844Z,21.20
2022-09-15T13:41:22.634Z,20.94
2022-09-15T13:44:13.923Z,21.29
2022-09-15T13:47:02.286Z,20.77
2022-09-15T13:49:47.963Z,21.00
2022-09-15T13:52:24.327Z,21.06
2022-09-15T13:55:19.798Z,21.14
2022-09-15T14:01:02.463Z,21.30
2022-09-15T14:03:47.939Z,21.22
2022-09-15T14:06:37.339Z,21.02
2022-09-15T14:09:29.287Z,20.79
2022-09-15T14:12:03.101Z,21.05
2022-09-15T14:14:51.793Z,20.85
2022-09-15T14:17:24.847Z,20.61
2022-09-15T14:19:55.108Z,20.67
2022-09-15T14:22:26.780Z,20.78
2022-09-15T14:25:00.257Z,20.39
2022-09-15T14:27:34.057Z,20.51
2022-09-15T14:30:09.682Z,20.46
2022-09-15T14:32:44.279Z,20.39
2022-09-15T14:35:19.763Z,20.10
2022-09-15T14:37:56.087Z,20.27
2022-09-15T14:40:35.303Z,20.08
2022-09-15T14:43:03.409Z,19.86
2022-09-15T14:45:56.728Z,20.16
2022-09-15T14:48:28.338Z,19.85
2022-09-15T14:51:25.843Z,20.17
2022-09-15T14:53:58.825Z,20.32
2022-09-15T14:56:31.508Z,20.49
2022-09-15T14:59:03.730Z,20.20
2022-09-15T15:02:00.769Z,20.13
2022-09-15T15:04:40.503Z,19.83
2022-09-15T15:07:23.307Z,19.94
2022-09-15T15:09:59.316Z,19.81
2022-09-15T15:12:37.548Z,20.11
2022-09-15T15:15:06.295Z,19.98
2022-09-15T15:17:45.618Z,20.18
2022-09-15T15:20:18.015Z,19.86
2022-09-15T15:22:46.555Z,19.85
2022-09-15T15:25:28.474Z,19.91
2022-09-15T15:28:00.705Z,19.95
2022-09-15T15:30:35.484Z,20.12
2022-09-15T15:33:05.515Z,19.85
2022-09-15T15:35:35.957Z,19.78
2022-09-15T15:38:06.781Z,19.91
2022-09-15T15:40:58.067Z,20.24
2022-09-15T15:43:32.173Z,20.00
2022-09-15T15:46:03.445Z,19.77
2022-09-15T15:48:38.336Z,19.90
2022-09-15T15:51:07.363Z,20.06
2022-09-15T15:53:35.003Z,20.14
2022-09-15T15:56:02.322Z,20.07
2022-09-15T15:58:29.322Z,20.20
2022-09-15T16:00:57.770Z,20.33
2022-09-15T16:03:25.936Z,20.36
2022-09-15T16:05:57.548Z,20.08
2022-09-15T16:08:28.381Z,19.94
2022-09-15T16:10:56.648Z,20.24
2022-09-15T16:13:25.501Z,20.36
2022-09-15T16:16:01.313Z,20.13
2022-09-15T16:18:33.236Z,20.17
2022-09-15T16:21:00.449Z,20.37
2022-09-15T16:23:28.207Z,20.34
2022-09-15T16:26:03.819Z,20.03
2022-09-15T16:28:36.946Z,19.88
2022-09-15T16:31:04.760Z,20.11
2022-09-15T16:33:36.013Z,20.07
2022-09-15T16:36:09.201Z,20.25
2022-09-15T16:38:37.065Z,20.16
2022-09-15T16:41:28.443Z,20.09
2022-09-15T16:43:56.241Z,20.49
2022-09-15T16:46:23.910Z,20.22
2022-09-15T16:48:52.108Z,20.40
2022-09-15T16:51:29.511Z,20.10
2022-09-15T16:53:58.509Z,20.28
2022-09-15T16:56:25.802Z,20.26
2022-09-15T16:58:58.895Z,20.45
2022-09-15T17:01:27.155Z,20.39
2022-09-15T17:03:54.308Z,20.42
2022-09-15T17:06:22.403Z,20.19
2022-09-15T17:08:49.884Z,20.26
2022-09-15T17:11:19.505Z,20.24
2022-09-15T17:13:47.595Z,20.34
2022-09-15T17:16:17.965Z,20.33
2022-09-15T17:18:45.328Z,20.66
2022-09-15T17:21:13.421Z,20.51
2022-09-15T17:23:44.397Z,20.33
2022-09-15T17:26:14.591Z,20.34
2022-09-15T17:28:42.567Z,20.58
2022-09-15T17:31:15.200Z,20.32
2022-09-15T17:33:42.731Z,20.40
2022-09-15T17:36:10.116Z,20.68
2022-09-15T17:38:37.314Z,20.47
2022-09-15T17:41:04.638Z,20.67
2022-09-15T17:43:35.183Z,20.61
2022-09-15T17:46:02.627Z,20.64
2022-09-15T17:48:29.796Z,20.57
2022-09-15T17:50:57.165Z,20.63
2022-09-15T17:53:28.925Z,20.54
2022-09-15T17:55:56.904Z,20.65
2022-09-15T17:58:27.024Z,20.81
2022-09-15T18:00:54.766Z,20.74
2022-09-15T18:03:31.217Z,20.74
2022-09-15T18:06:00.321Z,20.82
2022-09-15T18:09:03.655Z,20.70
2022-09-15T18:17:55.715Z,21.02
2022-09-15T18:23:40.771Z,20.73
2022-09-15T18:26:28.176Z,20.77
2022-09-15T18:28:57.378Z,21.17
2022-09-15T18:31:39.132Z,20.96
2022-09-15T18:34:08.028Z,21.06
2022-09-15T18:36:40.857Z,21.16
2022-09-15T18:39:11.559Z,21.25
2022-09-15T18:41:39.665Z,20.86
2022-09-15T18:44:33.562Z,20.76
2022-09-15T18:47:14.257Z,21.13
2022-09-15T18:49:50.140Z,21.08
2022-09-15T18:52:30.037Z,21.17
2022-09-15T18:55:01.879Z,21.09
2022-09-15T19:00:41.198Z,21.28
2022-09-15T19:03:10.232Z,21.41
2022-09-15T19:09:56.580Z,21.42
2022-09-15T19:12:58.764Z,21.25
2022-09-15T19:15:44.356Z,21.55
2022-09-15T19:18:14.282Z,21.17
2022-09-15T19:21:40.199Z,21.13
2022-09-15T19:24:07.738Z,21.21
2022-09-15T19:26:45.123Z,21.34
2022-09-15T19:29:45.138Z,21.44
2022-09-15T19:32:21.986Z,21.41
2022-09-15T20:02:27.661Z,21.65
2022-09-15T20:05:07.564Z,21.77
2022-09-15T20:08:21.068Z,21.49
2022-09-15T20:10:51.223Z,21.98
2022-09-15T20:13:19.010Z,21.78
2022-09-15T20:16:03.763Z,21.66
2022-09-15T20:18:32.937Z,21.71
2022-09-15T20:21:00.898Z,21.94
2022-09-15T20:23:29.409Z,21.46
2022-09-15T20:26:02.500Z,21.88
2022-09-15T20:28:31.144Z,21.93
2022-09-15T20:31:16.833Z,21.86
2022-09-15T20:33:48.588Z,21.80
2022-09-15T20:39:01.854Z,22.00
2022-09-15T20:41:34.647Z,21.84
2022-09-15T20:44:12.999Z,21.97
2022-09-15T20:46:41.032Z,21.65
2022-09-15T20:49:11.114Z,21.84
2022-09-15T20:51:39.602Z,22.04
2022-09-15T20:54:08.171Z,22.01
2022-09-15T20:56:44.352Z,22.01
2022-09-15T20:59:14.176Z,21.81
2022-09-15T21:01:44.468Z,22.10
2022-09-15T21:04:13.248Z,21.89
2022-09-15T21:06:44.383Z,21.99
2022-09-15T21:09:11.755Z,21.91
2022-09-15T21:11:43.665Z,21.83
2022-09-15T21:14:15.667Z,22.10
2022-09-15T21:19:26.757Z,21.92
2022-09-15T21:21:58.056Z,22.09
2022-09-15T21:24:25.456Z,22.15
2022-09-15T21:27:45.231Z,21.97
2022-09-15T21:30:15.363Z,22.17
2022-09-15T21:32:42.961Z,22.15
2022-09-15T21:35:10.230Z,21.96
2022-09-15T21:37:37.494Z,22.39
2022-09-15T21:40:05.648Z,22.12
2022-09-15T21:42:37.077Z,22.21
2022-09-15T21:45:04.607Z,22.43
2022-09-15T21:47:34.334Z,22.35
2022-09-15T21:50:09.010Z,22.34
2022-09-15T21:52:36.426Z,22.47
2022-09-15T21:55:03.620Z,22.20
2022-09-15T21:57:30.808Z,22.16
